Masonville, Colorado
Current Conditions -  °F | °C
As of 1:35 AM on Friday 28 Nov 2014 (Local Time) from KFNL Reporting Station
Clear Clear  
Wind Chill: 61°   Ceiling: Unl
Heat Index: 61°   Visibility: 10mi
Dew Point: 18°   Wind: 17mph
Humidity: 19%   Direction: 230°SW
Pressure: 30"   Gusts: 33mph
Location:  40.49°N, 105.21°W
Report Text: KFNL 280835Z AUTO 23015G29KT 10SM CLR 16/M08 A3000 RMK AO1
Loading
Personal Weather Stations






























Interactive Weather Map New forecast layout! Learn more

10-Day Weather Forecast

Advertisements
Track Severe Weather on mobile